Time;durP1;ratioP1;P1;durP2;ratioP2;P2;SDS_P1;SDS_P2;PMS_P1;PMS_P2;Temp;Humidity;BMP_temperature;BMP_pressure;BME280_temperature;BME280_humidity;BME280_pressure;Samples;Min_cycle;Max_cycle;Signal;HPM_P1;HPM_P2
2022/06/15 00:01:29;;;;;;;;;4.75;4.75;;;;;22.48;42.17;101354.09;5063354;28;45327;-51
2022/06/15 00:03:54;;;;;;;;;5.25;5.00;;;;;22.44;42.02;101350.03;5062956;28;45537;-51
2022/06/15 00:06:23;;;;;;;;;6.50;6.00;;;;;22.40;42.22;101343.28;5062693;28;46028;-54
2022/06/15 00:08:51;;;;;;;;;6.25;6.25;;;;;22.33;41.92;101342.19;5063061;28;45282;-49
2022/06/15 00:11:23;;;;;;;;;5.00;5.00;;;;;22.29;42.39;101341.66;5062968;28;45315;-54
2022/06/15 00:13:50;;;;;;;;;4.50;4.50;;;;;22.26;42.83;101335.75;5063314;28;45445;-52
2022/06/15 00:16:17;;;;;;;;;5.00;4.25;;;;;22.23;42.44;101342.28;5062838;28;46009;-52
2022/06/15 00:18:44;;;;;;;;;5.00;5.00;;;;;22.21;42.86;101340.75;5063063;28;45243;-54
2022/06/15 00:21:10;;;;;;;;;5.00;5.00;;;;;22.19;42.89;101342.72;5062823;28;45259;-55
2022/06/15 00:23:37;;;;;;;;;6.75;5.75;;;;;22.16;42.80;101348.41;5063053;28;45390;-49
2022/06/15 00:26:04;;;;;;;;;4.00;4.00;;;;;22.14;43.01;101335.13;5062625;28;45397;-50
2022/06/15 00:28:30;;;;;;;;;7.00;5.75;;;;;22.10;43.18;101343.63;5062881;28;45331;-52
2022/06/15 00:30:55;;;;;;;;;5.00;5.00;;;;;22.06;43.15;101342.22;5060760;28;47010;-51
2022/06/15 00:33:22;;;;;;;;;5.00;5.00;;;;;22.03;43.25;101338.81;5054537;28;45251;-51
2022/06/15 00:35:59;;;;;;;;;6.75;5.00;;;;;22.02;43.37;101341.66;5065209;28;45478;-54
2022/06/15 00:38:25;;;;;;;;;6.00;4.00;;;;;21.99;43.33;101342.81;5062779;28;45303;-54
2022/06/15 00:40:51;;;;;;;;;7.75;5.00;;;;;21.97;43.45;101347.50;5060507;28;45393;-54
2022/06/15 00:43:38;;;;;;;;;3.50;3.50;;;;;21.93;43.63;101348.78;5058217;28;45304;-53
2022/06/15 00:46:22;;;;;;;;;4.00;4.00;;;;;21.90;43.89;101349.09;5062544;28;45409;-54
2022/06/15 00:49:34;;;;;;;;;6.25;4.50;;;;;21.91;43.88;101357.97;5062216;28;45415;-53
2022/06/15 00:52:08;;;;;;;;;6.00;5.00;;;;;21.87;44.01;101343.16;5028574;28;45425;-53
2022/06/15 00:54:34;;;;;;;;;5.75;5.75;;;;;21.86;44.32;101350.38;5062303;28;45371;-52
2022/06/15 00:57:02;;;;;;;;;6.75;5.75;;;;;21.87;44.02;101351.22;5062123;28;45363;-51
2022/06/15 00:59:55;;;;;;;;;6.00;6.00;;;;;21.87;44.21;101348.53;5062499;28;45547;-52
2022/06/15 01:02:21;;;;;;;;;5.00;5.00;;;;;21.85;44.22;101346.00;5055718;28;45288;-52
2022/06/15 01:05:04;;;;;;;;;4.25;4.25;;;;;21.81;44.49;101355.34;5062273;28;45513;-51
2022/06/15 01:07:46;;;;;;;;;5.00;5.00;;;;;21.79;44.47;101353.78;5061795;28;45364;-52
2022/06/15 01:10:28;;;;;;;;;6.75;5.50;;;;;21.74;44.56;101352.41;5061985;28;45263;-54
2022/06/15 01:13:00;;;;;;;;;5.25;4.75;;;;;21.70;44.76;101356.38;5062210;28;45338;-54
2022/06/15 01:15:38;;;;;;;;;5.00;5.00;;;;;21.66;44.68;101354.16;5062070;28;45484;-51
2022/06/15 01:18:47;;;;;;;;;4.00;4.00;;;;;21.63;44.69;101352.59;5061924;28;46132;-54
2022/06/15 01:21:44;;;;;;;;;5.50;5.50;;;;;21.58;44.99;101351.38;5058722;28;45292;-53
2022/06/15 01:24:21;;;;;;;;;5.75;5.75;;;;;21.56;45.17;101351.47;5061959;28;45271;-55
2022/06/15 01:26:58;;;;;;;;;7.00;6.00;;;;;21.52;44.99;101352.78;5061969;28;45485;-54
2022/06/15 01:30:01;;;;;;;;;7.00;4.25;;;;;21.51;45.27;101345.75;5061511;28;45268;-53
2022/06/15 01:32:49;;;;;;;;;9.50;7.00;;;;;21.49;45.13;101349.53;5061565;28;45300;-52
2022/06/15 01:35:30;;;;;;;;;6.25;5.50;;;;;21.45;45.27;101341.81;5062378;28;45334;-52
2022/06/15 01:37:59;;;;;;;;;6.00;6.00;;;;;21.45;45.34;101349.00;5062753;28;45244;-55
2022/06/15 01:40:36;;;;;;;;;4.75;4.75;;;;;21.42;45.33;101334.06;5061496;28;45319;-53
2022/06/15 01:43:15;;;;;;;;;6.00;5.00;;;;;21.40;45.62;101346.75;5061699;28;45506;-54
2022/06/15 01:45:43;;;;;;;;;4.75;4.75;;;;;21.36;45.50;101345.38;5061538;28;45730;-54
2022/06/15 01:48:12;;;;;;;;;10.00;9.25;;;;;21.35;45.52;101345.53;5061790;28;45390;-55
2022/06/15 01:50:48;;;;;;;;;7.50;6.75;;;;;21.30;45.49;101345.94;5061011;28;45474;-53
2022/06/15 01:53:21;;;;;;;;;8.25;5.25;;;;;21.27;45.58;101335.53;5061556;28;45256;-54
2022/06/15 01:56:11;;;;;;;;;6.75;6.00;;;;;21.25;46.03;101336.59;5061221;28;45375;-53
2022/06/15 01:58:40;;;;;;;;;6.50;4.75;;;;;21.23;46.02;101333.25;5061426;28;45557;-53
2022/06/15 02:01:23;;;;;;;;;8.75;6.50;;;;;21.19;46.11;101333.53;5061355;28;45396;-53
2022/06/15 02:04:03;;;;;;;;;6.50;6.50;;;;;21.14;46.14;101327.75;5061183;28;45319;-50
2022/06/15 02:06:40;;;;;;;;;5.50;5.50;;;;;21.13;46.06;101331.44;5061090;28;45371;-52
2022/06/15 02:09:40;;;;;;;;;7.00;5.50;;;;;21.12;46.25;101320.88;5061420;28;45232;-52
2022/06/15 02:12:08;;;;;;;;;5.75;5.75;;;;;21.11;46.43;101321.88;5056886;28;46076;-54
2022/06/15 02:14:42;;;;;;;;;4.75;4.75;;;;;21.09;46.67;101316.66;5061042;28;45161;-52
2022/06/15 02:17:25;;;;;;;;;7.25;5.00;;;;;21.06;46.54;101313.41;5061272;28;45248;-53
2022/06/15 02:19:58;;;;;;;;;11.00;4.00;;;;;21.02;46.81;101312.88;5061122;28;45324;-52
2022/06/15 02:22:27;;;;;;;;;7.00;7.00;;;;;20.97;46.59;101312.44;5060729;28;46464;-54
2022/06/15 02:24:56;;;;;;;;;6.50;5.50;;;;;20.95;46.97;101305.56;5060739;28;45223;-54
2022/06/15 02:27:25;;;;;;;;;4.00;2.75;;;;;20.94;46.61;101306.53;5061003;28;45343;-52
2022/06/15 02:29:58;;;;;;;;;5.50;5.50;;;;;20.92;46.99;101315.53;5060788;28;45260;-51
2022/06/15 02:32:24;;;;;;;;;6.50;6.00;;;;;20.91;46.70;101308.50;5060771;28;45998;-54
2022/06/15 02:34:50;;;;;;;;;6.00;6.00;;;;;20.88;47.06;101311.47;5060738;28;45366;-53
2022/06/15 02:37:16;;;;;;;;;9.00;6.25;;;;;20.87;46.87;101311.63;5063942;28;45318;-53
2022/06/15 02:39:41;;;;;;;;;4.25;4.00;;;;;20.85;47.30;101314.44;5061032;28;45347;-51
2022/06/15 02:42:32;;;;;;;;;3.25;3.00;;;;;20.79;47.40;101306.97;5060506;28;46076;-54
2022/06/15 02:45:01;;;;;;;;;6.00;5.00;;;;;20.76;47.41;101306.41;5060781;28;45264;-51
2022/06/15 02:47:31;;;;;;;;;10.25;7.00;;;;;20.75;47.46;101310.91;5060856;28;45291;-52
2022/06/15 02:49:59;;;;;;;;;5.75;5.75;;;;;20.74;47.51;101301.19;5060893;28;45381;-54
2022/06/15 02:52:31;;;;;;;;;9.00;7.00;;;;;20.75;47.58;101302.03;5060249;28;46252;-53
2022/06/15 02:54:57;;;;;;;;;4.25;4.25;;;;;20.73;47.54;101302.19;5060225;28;45449;-53
2022/06/15 02:57:24;;;;;;;;;7.25;5.25;;;;;20.71;47.38;101303.34;5062478;28;45364;-55
2022/06/15 02:59:51;;;;;;;;;5.75;5.75;;;;;20.69;47.76;101303.44;5064273;28;45282;-49
2022/06/15 03:02:18;;;;;;;;;8.75;6.00;;;;;20.65;47.58;101299.38;5063653;28;45381;-52
2022/06/15 03:04:44;;;;;;;;;8.00;7.50;;;;;20.63;47.97;101302.22;5064241;28;45372;-53
2022/06/15 03:07:11;;;;;;;;;5.75;5.75;;;;;20.59;47.86;101306.16;5064077;28;45182;-55
2022/06/15 03:09:38;;;;;;;;;5.75;5.25;;;;;20.60;47.84;101298.97;5064129;28;45365;-52
2022/06/15 03:12:05;;;;;;;;;6.75;5.50;;;;;20.58;47.65;101299.09;5063961;28;46361;-53
2022/06/15 03:14:30;;;;;;;;;6.25;6.00;;;;;20.61;47.99;101309.50;5063897;28;45275;-53
2022/06/15 03:16:57;;;;;;;;;7.25;7.25;;;;;20.63;48.03;101309.41;5064237;28;45307;-55
2022/06/15 03:19:23;;;;;;;;;5.50;5.50;;;;;20.63;48.40;101304.88;5063862;28;45394;-52
2022/06/15 03:21:48;;;;;;;;;7.00;6.50;;;;;20.62;48.21;101308.56;5063579;28;45363;-52
2022/06/15 03:24:14;;;;;;;;;9.50;7.25;;;;;20.61;48.23;101308.66;5063751;28;45154;-50
2022/06/15 03:26:40;;;;;;;;;10.25;7.75;;;;;20.59;48.44;101319.53;5063980;28;45170;-53
2022/06/15 03:29:07;;;;;;;;;8.00;6.50;;;;;20.58;48.16;101322.34;5063805;28;45218;-52
2022/06/15 03:31:32;;;;;;;;;7.50;7.25;;;;;20.59;48.64;101314.19;5063917;28;45394;-52
2022/06/15 03:33:58;;;;;;;;;9.00;6.75;;;;;20.60;48.37;101317.69;5063512;28;45326;-49
2022/06/15 03:36:24;;;;;;;;;9.25;7.25;;;;;20.59;48.65;101311.50;5067183;28;45338;-50
2022/06/15 03:38:49;;;;;;;;;12.50;7.25;;;;;20.59;48.45;101321.38;5063726;28;45346;-50
2022/06/15 03:41:16;;;;;;;;;5.25;5.25;;;;;20.57;48.60;101318.84;5063388;28;46440;-56
2022/06/15 03:43:41;;;;;;;;;8.50;8.25;;;;;20.58;48.53;101330.38;5063733;28;45438;-56
2022/06/15 03:46:07;;;;;;;;;11.25;6.25;;;;;20.57;48.53;101321.50;5063595;28;45565;-54
2022/06/15 03:48:32;;;;;;;;;6.00;6.00;;;;;20.56;48.35;101319.81;5063774;28;45137;-55
2022/06/15 03:50:58;;;;;;;;;8.00;7.00;;;;;20.55;48.54;101317.28;5062959;28;45338;-56
2022/06/15 03:53:23;;;;;;;;;6.25;5.25;;;;;20.54;48.67;101313.78;5063371;28;45325;-56
2022/06/15 03:55:49;;;;;;;;;6.50;5.25;;;;;20.52;48.59;101317.56;5063150;28;45422;-57
2022/06/15 03:58:18;;;;;;;;;9.75;7.75;;;;;20.51;48.96;101318.53;5063528;28;45240;-57
2022/06/15 04:00:44;;;;;;;;;10.00;6.25;;;;;20.49;48.99;101309.81;5063047;28;45374;-56
2022/06/15 04:03:10;;;;;;;;;7.00;7.00;;;;;20.48;48.76;101319.69;5062863;28;45314;-54
2022/06/15 04:05:41;;;;;;;;;6.75;6.50;;;;;20.47;48.71;101314.47;5063203;28;45343;-56
2022/06/15 04:10:50;;;;;;;;;9.00;6.25;;;;;20.44;49.20;101320.94;5062821;28;45742;-56
2022/06/15 04:13:20;;;;;;;;;7.50;6.00;;;;;20.45;48.70;101325.31;5062984;28;45338;-55
2022/06/15 04:15:47;;;;;;;;;6.75;5.25;;;;;20.43;48.92;101329.91;5063184;28;45313;-57
2022/06/15 04:18:12;;;;;;;;;9.25;7.50;;;;;20.42;48.69;101322.03;5063031;28;45166;-56
2022/06/15 04:20:40;;;;;;;;;8.25;7.50;;;;;20.43;48.79;101321.06;5062427;28;45344;-56
2022/06/15 04:23:11;;;;;;;;;8.00;6.00;;;;;20.45;49.36;101313.75;5062899;28;45425;-56
2022/06/15 04:25:40;;;;;;;;;13.75;9.25;;;;;20.45;49.19;101309.25;5062933;28;45441;-56
2022/06/15 04:28:07;;;;;;;;;7.75;7.75;;;;;20.45;49.22;101309.25;5062917;28;46565;-57
2022/06/15 04:30:33;;;;;;;;;11.00;9.00;;;;;20.43;49.10;101315.69;5062765;28;45460;-56
2022/06/15 04:32:58;;;;;;;;;7.00;7.00;;;;;20.43;48.91;101318.38;5062788;28;45379;-56
2022/06/15 04:35:24;;;;;;;;;8.00;7.50;;;;;20.44;49.37;101322.78;5064616;28;45359;-56
2022/06/15 04:37:49;;;;;;;;;8.50;7.50;;;;;20.43;49.31;101323.72;5063278;28;45305;-55
2022/06/15 04:40:15;;;;;;;;;9.50;7.75;;;;;20.44;49.14;101328.13;5062510;28;46058;-56
2022/06/15 04:42:41;;;;;;;;;8.50;7.00;;;;;20.45;49.38;101321.78;5062475;28;45267;-53
2022/06/15 04:45:09;;;;;;;;;6.75;6.75;;;;;20.48;49.26;101330.38;5062717;28;45260;-56
2022/06/15 04:47:34;;;;;;;;;9.25;8.00;;;;;20.49;49.37;101321.38;5062703;28;45189;-56
2022/06/15 04:50:00;;;;;;;;;10.50;8.00;;;;;20.48;49.63;101329.53;5062516;28;45343;-57
2022/06/15 04:52:25;;;;;;;;;15.25;9.75;;;;;20.49;49.39;101331.22;5061992;28;45240;-57
2022/06/15 04:54:51;;;;;;;;;8.75;6.75;;;;;20.48;49.54;101332.22;5062402;28;45271;-56
2022/06/15 04:57:16;;;;;;;;;9.50;7.75;;;;;20.49;49.24;101323.19;5062123;28;45631;-56
2022/06/15 04:59:42;;;;;;;;;6.75;5.75;;;;;20.47;49.26;101333.22;5062429;28;45449;-55
2022/06/15 05:02:10;;;;;;;;;6.00;6.00;;;;;20.47;49.34;101333.22;5061766;28;45425;-56
2022/06/15 05:04:35;;;;;;;;;10.50;7.25;;;;;20.44;49.60;101336.16;5062237;28;45385;-57
2022/06/15 05:07:01;;;;;;;;;5.00;4.00;;;;;20.41;49.61;101331.06;5061921;28;45399;-56
2022/06/15 05:09:26;;;;;;;;;10.25;9.25;;;;;20.44;49.31;101339.66;5062401;28;45303;-56
2022/06/15 05:11:52;;;;;;;;;11.00;8.25;;;;;20.45;49.35;101340.50;5061900;28;45268;-56
2022/06/15 05:14:17;;;;;;;;;9.00;8.75;;;;;20.45;49.43;101337.84;5062261;28;45304;-56
2022/06/15 05:16:43;;;;;;;;;9.75;9.00;;;;;20.47;49.96;101334.06;5062161;28;45595;-56
2022/06/15 05:19:08;;;;;;;;;9.50;9.50;;;;;20.50;49.53;101338.28;5061359;28;45346;-56
2022/06/15 05:21:42;;;;;;;;;7.75;7.25;;;;;20.49;49.60;101328.56;5053956;28;45630;-56
2022/06/15 05:24:08;;;;;;;;;7.75;7.00;;;;;20.47;49.77;101328.69;5050700;28;45403;-56
2022/06/15 05:26:34;;;;;;;;;7.00;7.00;;;;;20.49;49.70;101325.88;5061964;28;45320;-57
2022/06/15 05:28:59;;;;;;;;;8.75;8.50;;;;;20.50;49.71;101335.59;5061538;28;45391;-57
2022/06/15 05:31:25;;;;;;;;;7.75;7.50;;;;;20.52;49.93;101339.81;5055483;28;45344;-59
2022/06/15 05:33:54;;;;;;;;;9.75;7.00;;;;;20.58;49.95;101341.94;5058339;28;45548;-58
2022/06/15 05:36:25;;;;;;;;;10.25;8.50;;;;;20.66;50.02;101345.75;5060199;28;45525;-58
2022/06/15 05:38:51;;;;;;;;;12.50;9.75;;;;;20.74;49.89;101344.03;5059883;28;46088;-58
2022/06/15 05:41:17;;;;;;;;;13.75;10.00;;;;;20.81;50.10;101336.28;5064093;28;45487;-58
2022/06/15 05:44:04;;;;;;;;;11.50;9.00;;;;;20.88;50.02;101332.91;5061065;28;45544;-58
2022/06/15 05:46:31;;;;;;;;;8.25;8.25;;;;;20.95;50.00;101335.00;5058226;28;45529;-58
2022/06/15 05:48:59;;;;;;;;;10.00;9.00;;;;;21.01;49.75;101331.72;5059387;28;45573;-58
2022/06/15 05:51:25;;;;;;;;;9.75;9.75;;;;;21.09;49.71;101338.09;5068669;28;45694;-58
2022/06/15 05:53:51;;;;;;;;;12.00;7.00;;;;;21.17;49.94;101337.34;5059628;28;45391;-58
2022/06/15 05:56:18;;;;;;;;;7.50;6.75;;;;;21.23;49.92;101338.59;5065386;28;45468;-58
2022/06/15 05:58:43;;;;;;;;;10.00;7.25;;;;;21.30;49.64;101343.25;5060537;28;45411;-58
2022/06/15 06:01:23;;;;;;;;;10.25;8.50;;;;;21.39;49.71;101334.34;5059323;28;45268;-58
2022/06/15 06:03:49;;;;;;;;;8.00;8.00;;;;;21.52;49.75;101346.59;5059144;28;45326;-57
2022/06/15 06:06:14;;;;;;;;;10.75;8.00;;;;;21.59;49.60;101342.31;5059517;28;45265;-58
2022/06/15 06:08:40;;;;;;;;;10.25;8.50;;;;;21.65;49.56;101352.47;5060164;28;45937;-58
2022/06/15 06:11:05;;;;;;;;;10.00;8.25;;;;;21.69;49.35;101346.63;5060533;28;45304;-58
2022/06/15 06:13:31;;;;;;;;;12.00;8.75;;;;;21.75;49.46;101347.91;5060842;28;45398;-56
2022/06/15 06:15:56;;;;;;;;;8.25;7.75;;;;;21.78;49.31;101352.94;5059557;28;45668;-56
2022/06/15 06:18:23;;;;;;;;;9.25;8.00;;;;;21.82;49.43;101349.00;5060925;28;45326;-55
2022/06/15 06:20:49;;;;;;;;;9.75;8.75;;;;;21.89;49.27;101350.09;5058491;28;45453;-57
2022/06/15 06:23:15;;;;;;;;;10.75;7.00;;;;;21.94;49.08;101344.25;5055521;28;45659;-57
2022/06/15 06:25:46;;;;;;;;;8.75;8.25;;;;;22.00;48.95;101339.13;5060121;28;45549;-58
2022/06/15 06:28:24;;;;;;;;;10.50;7.25;;;;;22.03;49.08;101341.50;5059535;28;46629;-56
2022/06/15 06:30:50;;;;;;;;;10.50;8.25;;;;;22.06;49.06;101339.53;5054932;28;45405;-56
2022/06/15 06:33:16;;;;;;;;;9.00;9.00;;;;;22.12;48.81;101342.50;5058364;28;45485;-56
2022/06/15 06:35:43;;;;;;;;;9.75;9.75;;;;;22.17;49.02;101340.19;5062599;28;45333;-56
2022/06/15 06:38:09;;;;;;;;;10.00;7.50;;;;;22.24;48.97;101341.28;5060263;28;46104;-55
2022/06/15 06:40:35;;;;;;;;;11.50;7.50;;;;;22.29;48.67;101346.19;5058863;28;45277;-55
2022/06/15 06:43:00;;;;;;;;;11.00;9.75;;;;;22.39;48.77;101346.97;5060113;28;45224;-56
2022/06/15 06:45:27;;;;;;;;;14.25;11.00;;;;;22.49;48.73;101342.34;5060030;28;45434;-55
2022/06/15 06:47:53;;;;;;;;;8.50;8.50;;;;;22.59;48.75;101344.94;5057553;28;45746;-55
2022/06/15 06:50:18;;;;;;;;;8.50;8.25;;;;;22.66;48.68;101347.88;5059046;28;45459;-55
2022/06/15 06:52:44;;;;;;;;;13.25;10.50;;;;;22.74;48.22;101346.09;5060089;28;45318;-56
2022/06/15 06:55:10;;;;;;;;;11.00;8.00;;;;;22.87;48.70;101347.56;5056020;28;45648;-57
2022/06/15 06:57:36;;;;;;;;;7.00;7.00;;;;;22.94;48.16;101344.13;5059459;28;46163;-56
2022/06/15 07:00:02;;;;;;;;;12.00;9.25;;;;;23.03;48.21;101345.00;5059211;28;45398;-56
2022/06/15 07:02:28;;;;;;;;;10.50;8.50;;;;;23.14;48.07;101342.06;5059189;28;45442;-57
2022/06/15 07:04:53;;;;;;;;;9.25;6.75;;;;;23.21;47.82;101339.59;5058104;28;45360;-57
2022/06/15 07:07:19;;;;;;;;;17.00;10.00;;;;;23.24;48.24;101342.81;5059355;28;45316;-56
2022/06/15 07:09:44;;;;;;;;;11.75;11.00;;;;;23.31;48.27;101348.41;5060204;28;45323;-57
2022/06/15 07:12:10;;;;;;;;;13.00;10.25;;;;;23.38;47.69;101336.84;5060092;28;45249;-57
2022/06/15 07:14:35;;;;;;;;;11.25;10.50;;;;;23.41;47.67;101343.75;5060050;28;45222;-57
2022/06/15 07:17:01;;;;;;;;;9.75;9.00;;;;;23.42;47.55;101349.97;5059941;28;45343;-57
2022/06/15 07:19:26;;;;;;;;;13.00;10.50;;;;;23.43;47.42;101348.97;5060057;28;45339;-57
2022/06/15 07:21:52;;;;;;;;;12.50;12.50;;;;;23.48;47.85;101352.03;5055018;28;45310;-57
2022/06/15 07:24:18;;;;;;;;;12.75;9.75;;;;;23.52;47.38;101353.38;5060499;28;45564;-57
2022/06/15 07:26:47;;;;;;;;;11.75;10.75;;;;;23.48;47.57;101349.34;5059875;28;45346;-57
2022/06/15 07:29:17;;;;;;;;;14.50;12.75;;;;;23.47;47.05;101351.19;5058489;28;45167;-57
2022/06/15 07:31:46;;;;;;;;;8.00;8.00;;;;;23.49;47.49;101349.16;5057526;28;45363;-57
2022/06/15 07:34:12;;;;;;;;;12.50;11.25;;;;;23.52;47.03;101350.69;5059938;28;45371;-57
2022/06/15 07:36:46;;;;;;;;;9.50;9.50;;;;;23.59;47.09;101357.09;5059356;28;46097;-57
2022/06/15 07:39:13;;;;;;;;;14.00;10.75;;;;;23.65;47.02;101362.72;5059979;28;45351;-58
2022/06/15 07:41:38;;;;;;;;;11.00;11.00;;;;;23.65;47.45;101362.72;5059606;28;45244;-57
2022/06/15 07:44:04;;;;;;;;;12.00;12.00;;;;;23.71;46.94;101358.56;5062883;28;45297;-57
2022/06/15 07:46:30;;;;;;;;;11.00;9.50;;;;;23.75;46.80;101351.00;5062239;28;45445;-58
2022/06/15 07:51:53;;;;;;;;;11.50;11.00;;;;;23.77;46.67;101359.75;5062834;28;45311;-58
2022/06/15 07:54:20;;;;;;;;;10.25;9.75;;;;;23.78;46.87;101356.03;5056926;28;45513;-57
2022/06/15 07:56:45;;;;;;;;;12.00;8.00;;;;;23.79;47.04;101363.97;5059061;28;46073;-57
2022/06/15 07:59:13;;;;;;;;;9.75;7.50;;;;;23.83;46.70;101359.09;5062190;28;45303;-57
2022/06/15 08:01:39;;;;;;;;;10.00;9.00;;;;;23.86;46.93;101362.31;5063130;28;45171;-56
2022/06/15 08:04:05;;;;;;;;;9.50;9.50;;;;;23.93;46.37;101355.25;5063020;28;45374;-59
2022/06/15 08:06:31;;;;;;;;;11.75;11.00;;;;;24.01;46.51;101348.22;5060998;28;46392;-59
2022/06/15 08:08:57;;;;;;;;;11.25;9.50;;;;;24.10;46.03;101360.72;5062813;28;45492;-59
2022/06/15 08:11:23;;;;;;;;;10.25;9.25;;;;;24.15;46.15;101352.97;5062914;28;45322;-59
2022/06/15 08:13:49;;;;;;;;;11.00;11.00;;;;;24.20;46.29;101354.19;5062855;28;45398;-59
2022/06/15 08:16:18;;;;;;;;;8.50;8.50;;;;;24.25;46.65;101353.66;5062816;28;46150;-59
2022/06/15 08:18:48;;;;;;;;;10.00;10.00;;;;;24.32;46.13;101343.94;5062940;28;45241;-59
2022/06/15 08:21:24;;;;;;;;;8.50;8.25;;;;;24.36;46.03;101347.19;5059564;28;45403;-59
2022/06/15 08:23:52;;;;;;;;;12.00;9.00;;;;;24.40;46.25;101348.50;5060513;28;45322;-59
2022/06/15 08:26:22;;;;;;;;;13.00;8.25;;;;;24.44;45.63;101350.72;5062545;28;46043;-59
2022/06/15 08:28:51;;;;;;;;;10.00;8.00;;;;;24.49;45.85;101340.31;5062626;28;45391;-59
2022/06/15 08:31:17;;;;;;;;;9.50;8.75;;;;;24.55;45.59;101346.84;5060891;28;45473;-55
2022/06/15 08:33:43;;;;;;;;;4.50;3.75;;;;;24.62;45.39;101344.34;5062503;28;45422;-54
2022/06/15 08:36:11;;;;;;;;;8.75;7.75;;;;;24.66;45.77;101340.31;5065004;28;45455;-54
2022/06/15 08:38:36;;;;;;;;;11.50;7.75;;;;;24.73;45.92;101338.63;5062016;28;45418;-55
2022/06/15 08:41:21;;;;;;;;;9.00;8.50;;;;;24.77;45.33;101339.97;5062308;28;45473;-56
2022/06/15 08:43:59;;;;;;;;;10.00;8.50;;;;;24.79;45.56;101344.16;5062402;27;45409;-55
2022/06/15 08:46:52;;;;;;;;;10.25;9.75;;;;;24.86;44.89;101348.88;5063121;28;45332;-48
2022/06/15 08:49:32;;;;;;;;;13.75;10.00;;;;;24.90;45.07;101340.28;5063559;28;45390;-57
2022/06/15 08:52:03;;;;;;;;;11.25;10.00;;;;;24.93;44.92;101341.81;5059340;28;45454;-57
2022/06/15 08:54:52;;;;;;;;;11.25;10.50;;;;;25.00;45.01;101340.94;5061232;28;45784;-59
2022/06/15 08:57:40;;;;;;;;;13.25;11.75;;;;;25.02;44.44;101340.78;5058143;28;46202;-58
2022/06/15 09:00:15;;;;;;;;;15.25;12.75;;;;;25.04;44.96;101345.03;5057196;28;45437;-59
2022/06/15 09:03:33;;;;;;;;;11.75;11.00;;;;;25.15;44.97;101333.03;5062090;28;45501;-59
2022/06/15 09:06:27;;;;;;;;;11.00;9.00;;;;;25.24;44.20;101340.09;5046134;28;45378;-59
2022/06/15 09:09:02;;;;;;;;;12.25;11.50;;;;;25.29;44.30;101334.19;5061245;28;45398;-59
2022/06/15 09:11:40;;;;;;;;;14.00;10.75;;;;;25.32;44.25;101332.00;5061453;28;45282;-59
2022/06/15 09:14:39;;;;;;;;;15.00;13.75;;;;;25.37;44.09;101331.47;5059730;28;45434;-58
2022/06/15 09:17:13;;;;;;;;;15.50;13.00;;;;;25.41;43.90;101338.19;5055766;28;45370;-59
2022/06/15 09:19:46;;;;;;;;;13.75;12.00;;;;;25.45;43.64;101344.09;5056947;28;45438;-58
2022/06/15 09:22:17;;;;;;;;;18.00;15.00;;;;;25.49;43.79;101346.25;5053099;28;45481;-58
2022/06/15 09:24:56;;;;;;;;;14.25;13.00;;;;;25.55;43.62;101342.03;5058188;28;45391;-58
2022/06/15 09:27:32;;;;;;;;;10.00;8.75;;;;;25.67;43.63;101337.94;5058295;28;45415;-58
2022/06/15 09:30:05;;;;;;;;;13.25;12.00;;;;;25.79;43.51;101341.13;5051334;28;45474;-58
2022/06/15 09:32:35;;;;;;;;;12.00;11.00;;;;;25.90;43.39;101348.81;5055611;28;45398;-58
2022/06/15 09:35:18;;;;;;;;;11.25;9.25;;;;;25.94;43.26;101344.78;5060895;28;45433;-59
2022/06/15 09:37:51;;;;;;;;;9.25;8.75;;;;;25.96;42.91;101356.22;5058215;28;45468;-59
2022/06/15 09:40:18;;;;;;;;;8.75;7.00;;;;;26.04;42.78;101352.66;5060511;28;46034;-59
2022/06/15 09:43:36;;;;;;;;;9.25;8.75;;;;;26.07;42.70;101353.16;5060686;28;45252;-59
2022/06/15 09:46:10;;;;;;;;;9.25;8.50;;;;;26.11;42.67;101343.66;5026156;28;45855;-58
2022/06/15 09:48:38;;;;;;;;;13.50;12.50;;;;;26.15;42.13;101341.47;5061457;28;45376;-58
2022/06/15 09:51:22;;;;;;;;;10.75;9.00;;;;;26.20;41.94;101332.81;5060738;28;45343;-58
2022/06/15 09:54:12;;;;;;;;;9.00;6.50;;;;;26.27;42.29;101340.00;5061242;28;45457;-59
2022/06/15 09:56:38;;;;;;;;;9.75;8.50;;;;;26.34;41.73;101332.03;5064361;28;45422;-59
2022/06/15 09:59:09;;;;;;;;;9.50;9.25;;;;;26.41;41.75;101336.59;5060638;28;45407;-59
2022/06/15 10:01:42;;;;;;;;;8.75;7.50;;;;;26.53;41.77;101330.75;5059321;28;48465;-59
2022/06/15 10:04:18;;;;;;;;;11.50;8.25;;;;;26.61;41.49;101327.97;5060623;28;45444;-59
2022/06/15 10:07:05;;;;;;;;;13.50;11.75;;;;;26.71;41.59;101334.00;5060212;28;45279;-59
2022/06/15 10:09:35;;;;;;;;;10.00;10.00;;;;;26.77;41.40;101333.25;5060527;28;45453;-58
2022/06/15 10:15:13;;;;;;;;;10.50;8.50;;;;;26.83;41.09;101329.81;5060584;28;45404;-58
2022/06/15 10:17:44;;;;;;;;;11.00;11.00;;;;;26.91;41.02;101335.16;5060687;28;45461;-59
2022/06/15 10:20:35;;;;;;;;;12.00;9.00;;;;;27.00;41.14;101334.03;5059249;28;45426;-59
2022/06/15 10:23:06;;;;;;;;;13.25;9.00;;;;;27.07;40.88;101330.63;5055179;28;45262;-59
2022/06/15 10:25:36;;;;;;;;;76.67;61.33;;;;;27.10;40.84;101333.00;5060166;28;45405;-59
2022/06/15 10:28:16;;;;;;;;;14.00;13.00;;;;;27.13;40.41;101338.84;5060746;28;45508;-58
2022/06/15 10:30:59;;;;;;;;;11.25;9.50;;;;;27.22;40.74;101335.03;5059753;28;45509;-57
2022/06/15 10:33:36;;;;;;;;;10.50;10.00;;;;;27.31;40.57;101337.66;5055761;28;46303;-58
2022/06/15 10:36:01;;;;;;;;;8.50;8.25;;;;;27.37;40.41;101340.47;5062730;28;45515;-58
2022/06/15 10:38:28;;;;;;;;;15.75;13.75;;;;;27.45;40.17;101336.81;5059992;28;45441;-59
2022/06/15 10:43:47;;;;;;;;;29.25;26.50;;;;;27.49;39.85;101330.00;5048549;28;45488;-58
2022/06/15 10:46:13;;;;;;;;;6.50;6.50;;;;;27.49;40.08;101330.00;5060154;28;45409;-59
2022/06/15 10:48:47;;;;;;;;;9.75;9.00;;;;;27.57;40.04;101324.50;5059918;28;45271;-58
2022/06/15 10:51:17;;;;;;;;;27.25;24.50;;;;;27.64;40.01;101328.13;5059863;28;45236;-58
2022/06/15 10:53:45;;;;;;;;;11.00;9.75;;;;;27.73;39.71;101334.31;5058695;28;45436;-58
2022/06/15 11:02:29;;;;;;;;;8.50;8.00;;;;;27.87;39.09;101328.03;5059811;28;45549;-58
2022/06/15 11:05:04;;;;;;;;;8.00;6.25;;;;;27.91;39.03;101320.38;5059380;28;45368;-59
2022/06/15 11:07:33;;;;;;;;;9.50;6.50;;;;;27.97;39.55;101323.16;5058862;28;45343;-58
2022/06/15 11:09:58;;;;;;;;;8.50;7.25;;;;;28.03;39.01;101326.97;5059413;28;45403;-58
2022/06/15 11:12:29;;;;;;;;;6.75;6.00;;;;;28.09;39.29;101324.31;5059710;28;45467;-58
2022/06/15 11:14:59;;;;;;;;;8.25;7.00;;;;;28.17;38.66;101327.94;5059519;28;45331;-58
2022/06/15 11:20:41;;;;;;;;;8.50;7.50;;;;;28.36;39.23;101333.63;5058354;28;45330;-58
2022/06/15 11:23:23;;;;;;;;;9.00;9.00;;;;;28.45;38.76;101325.38;5058455;28;45671;-58
2022/06/15 11:29:04;;;;;;;;;8.00;6.50;;;;;28.55;38.49;101323.16;5062806;28;45330;-58
2022/06/15 11:31:31;;;;;;;;;9.00;7.00;;;;;28.55;38.49;101332.13;5063337;28;45227;-58
2022/06/15 11:34:06;;;;;;;;;8.50;7.00;;;;;28.56;38.72;101328.38;5063333;28;45182;-58
2022/06/15 11:36:43;;;;;;;;;6.25;6.25;;;;;28.57;38.45;101324.63;5060557;28;45529;-58
2022/06/15 11:39:20;;;;;;;;;9.00;8.00;;;;;28.57;38.41;101318.38;5063077;28;45272;-58
2022/06/15 11:41:52;;;;;;;;;14.00;9.00;;;;;28.60;38.20;101318.84;5061960;28;45347;-58
2022/06/15 11:44:31;;;;;;;;;9.00;9.00;;;;;28.68;37.81;101320.56;5063401;28;45606;-58
2022/06/15 11:47:27;;;;;;;;;7.00;6.25;;;;;28.74;37.91;101314.34;5063217;28;45315;-59
2022/06/15 11:50:11;;;;;;;;;8.50;7.75;;;;;28.84;37.72;101323.00;5063138;28;45249;-58
2022/06/15 11:53:02;;;;;;;;;9.25;7.25;;;;;28.92;37.56;101327.47;5057184;28;45291;-58
2022/06/15 11:55:52;;;;;;;;;9.25;9.00;;;;;28.99;37.51;101320.19;5061620;28;45502;-58
2022/06/15 11:58:35;;;;;;;;;6.25;6.00;;;;;29.08;37.79;101321.75;5067749;28;45576;-59
2022/06/15 12:01:31;;;;;;;;;7.25;6.25;;;;;29.11;37.35;101321.34;5063091;28;45391;-58
2022/06/15 12:04:15;;;;;;;;;9.00;7.00;;;;;29.10;38.01;101325.09;5057187;28;45305;-59
2022/06/15 12:06:55;;;;;;;;;10.75;7.50;;;;;29.03;37.67;101336.94;5062719;28;45258;-58